sensor_id;sensor_type;location;lat;lon;timestamp;P1;durP1;ratioP1;P2;durP2;ratioP2
53833;SDS011;39735;51.432;5.482;2023-02-07T00:02:25;90.45;;;22.85;;
53833;SDS011;39735;51.432;5.482;2023-02-07T00:04:51;59.80;;;19.33;;
53833;SDS011;39735;51.432;5.482;2023-02-07T00:07:16;87.50;;;20.10;;
53833;SDS011;39735;51.432;5.482;2023-02-07T00:09:41;67.32;;;21.83;;
53833;SDS011;39735;51.432;5.482;2023-02-07T00:12:07;62.42;;;21.05;;
53833;SDS011;39735;51.432;5.482;2023-02-07T00:14:32;70.05;;;22.17;;
53833;SDS011;39735;51.432;5.482;2023-02-07T00:16:58;78.07;;;23.77;;
53833;SDS011;39735;51.432;5.482;2023-02-07T00:19:23;77.00;;;26.30;;
53833;SDS011;39735;51.432;5.482;2023-02-07T00:21:49;61.47;;;23.45;;
53833;SDS011;39735;51.432;5.482;2023-02-07T00:24:14;66.50;;;24.10;;
53833;SDS011;39735;51.432;5.482;2023-02-07T00:26:39;65.82;;;24.02;;
53833;SDS011;39735;51.432;5.482;2023-02-07T00:29:05;88.95;;;22.58;;
53833;SDS011;39735;51.432;5.482;2023-02-07T00:31:31;61.90;;;20.80;;
53833;SDS011;39735;51.432;5.482;2023-02-07T00:34:00;77.15;;;26.92;;
53833;SDS011;39735;51.432;5.482;2023-02-07T00:36:28;73.55;;;23.65;;
53833;SDS011;39735;51.432;5.482;2023-02-07T00:38:56;77.07;;;25.25;;
53833;SDS011;39735;51.432;5.482;2023-02-07T00:41:23;60.25;;;24.25;;
53833;SDS011;39735;51.432;5.482;2023-02-07T00:43:48;74.40;;;25.83;;
53833;SDS011;39735;51.432;5.482;2023-02-07T00:46:14;75.40;;;26.92;;
53833;SDS011;39735;51.432;5.482;2023-02-07T00:48:40;78.38;;;27.35;;
53833;SDS011;39735;51.432;5.482;2023-02-07T00:51:06;52.15;;;24.67;;
53833;SDS011;39735;51.432;5.482;2023-02-07T00:53:32;62.03;;;25.10;;
53833;SDS011;39735;51.432;5.482;2023-02-07T00:55:57;81.20;;;28.92;;
53833;SDS011;39735;51.432;5.482;2023-02-07T00:58:23;65.22;;;24.50;;
53833;SDS011;39735;51.432;5.482;2023-02-07T01:00:49;72.35;;;26.02;;
53833;SDS011;39735;51.432;5.482;2023-02-07T01:03:14;73.80;;;26.15;;
53833;SDS011;39735;51.432;5.482;2023-02-07T01:05:40;95.35;;;27.77;;
53833;SDS011;39735;51.432;5.482;2023-02-07T01:08:07;81.97;;;27.40;;
53833;SDS011;39735;51.432;5.482;2023-02-07T01:10:33;75.30;;;26.60;;
53833;SDS011;39735;51.432;5.482;2023-02-07T01:12:58;65.25;;;24.17;;
53833;SDS011;39735;51.432;5.482;2023-02-07T01:15:24;80.22;;;29.73;;
53833;SDS011;39735;51.432;5.482;2023-02-07T01:17:49;66.28;;;22.60;;
53833;SDS011;39735;51.432;5.482;2023-02-07T01:20:15;90.18;;;27.38;;
53833;SDS011;39735;51.432;5.482;2023-02-07T01:22:40;75.63;;;24.83;;
53833;SDS011;39735;51.432;5.482;2023-02-07T01:25:06;68.57;;;25.27;;
53833;SDS011;39735;51.432;5.482;2023-02-07T01:27:32;44.88;;;23.15;;
53833;SDS011;39735;51.432;5.482;2023-02-07T01:29:58;77.05;;;25.40;;
53833;SDS011;39735;51.432;5.482;2023-02-07T01:32:24;89.93;;;33.20;;
53833;SDS011;39735;51.432;5.482;2023-02-07T01:34:49;92.75;;;28.05;;
53833;SDS011;39735;51.432;5.482;2023-02-07T01:37:15;71.07;;;25.08;;
53833;SDS011;39735;51.432;5.482;2023-02-07T01:39:40;69.32;;;25.60;;
53833;SDS011;39735;51.432;5.482;2023-02-07T01:42:05;69.78;;;25.92;;
53833;SDS011;39735;51.432;5.482;2023-02-07T01:46:56;64.30;;;27.20;;
53833;SDS011;39735;51.432;5.482;2023-02-07T01:49:26;80.25;;;28.20;;
53833;SDS011;39735;51.432;5.482;2023-02-07T01:51:55;75.22;;;29.73;;
53833;SDS011;39735;51.432;5.482;2023-02-07T01:54:29;89.43;;;29.17;;
53833;SDS011;39735;51.432;5.482;2023-02-07T01:56:58;71.18;;;24.27;;
53833;SDS011;39735;51.432;5.482;2023-02-07T01:59:25;87.40;;;29.60;;
53833;SDS011;39735;51.432;5.482;2023-02-07T02:01:51;74.55;;;27.65;;
53833;SDS011;39735;51.432;5.482;2023-02-07T02:04:18;114.43;;;29.58;;
53833;SDS011;39735;51.432;5.482;2023-02-07T02:06:43;87.10;;;32.15;;
53833;SDS011;39735;51.432;5.482;2023-02-07T02:09:10;79.47;;;30.35;;
53833;SDS011;39735;51.432;5.482;2023-02-07T02:17:14;86.25;;;31.02;;
53833;SDS011;39735;51.432;5.482;2023-02-07T02:27:59;102.45;;;35.65;;
53833;SDS011;39735;51.432;5.482;2023-02-07T02:39:16;91.03;;;37.83;;
53833;SDS011;39735;51.432;5.482;2023-02-07T02:44:21;103.25;;;38.03;;
53833;SDS011;39735;51.432;5.482;2023-02-07T02:46:50;104.63;;;38.95;;
53833;SDS011;39735;51.432;5.482;2023-02-07T02:49:17;90.10;;;36.53;;
53833;SDS011;39735;51.432;5.482;2023-02-07T02:51:42;88.20;;;35.60;;
53833;SDS011;39735;51.432;5.482;2023-02-07T02:54:27;92.80;;;35.97;;
53833;SDS011;39735;51.432;5.482;2023-02-07T03:00:06;89.63;;;36.33;;
53833;SDS011;39735;51.432;5.482;2023-02-07T03:05:36;87.50;;;32.67;;
53833;SDS011;39735;51.432;5.482;2023-02-07T03:11:13;104.95;;;37.60;;
53833;SDS011;39735;51.432;5.482;2023-02-07T03:16:26;91.00;;;37.50;;
53833;SDS011;39735;51.432;5.482;2023-02-07T03:19:05;89.13;;;35.40;;
53833;SDS011;39735;51.432;5.482;2023-02-07T03:21:36;83.63;;;33.35;;
53833;SDS011;39735;51.432;5.482;2023-02-07T03:24:06;87.68;;;35.67;;
53833;SDS011;39735;51.432;5.482;2023-02-07T03:26:34;89.97;;;33.65;;
53833;SDS011;39735;51.432;5.482;2023-02-07T03:29:01;111.45;;;35.17;;
53833;SDS011;39735;51.432;5.482;2023-02-07T03:31:27;75.80;;;33.63;;
53833;SDS011;39735;51.432;5.482;2023-02-07T03:33:57;99.25;;;39.13;;
53833;SDS011;39735;51.432;5.482;2023-02-07T03:36:27;80.88;;;36.85;;
53833;SDS011;39735;51.432;5.482;2023-02-07T03:38:55;83.55;;;36.90;;
53833;SDS011;39735;51.432;5.482;2023-02-07T03:41:23;80.93;;;34.63;;
53833;SDS011;39735;51.432;5.482;2023-02-07T03:43:52;85.72;;;37.75;;
53833;SDS011;39735;51.432;5.482;2023-02-07T03:46:19;97.88;;;38.22;;
53833;SDS011;39735;51.432;5.482;2023-02-07T03:48:45;100.63;;;39.05;;
53833;SDS011;39735;51.432;5.482;2023-02-07T03:51:10;81.15;;;34.80;;
53833;SDS011;39735;51.432;5.482;2023-02-07T03:53:35;94.15;;;39.45;;
53833;SDS011;39735;51.432;5.482;2023-02-07T03:56:01;78.03;;;37.97;;
53833;SDS011;39735;51.432;5.482;2023-02-07T03:58:26;82.70;;;37.35;;
53833;SDS011;39735;51.432;5.482;2023-02-07T04:00:51;87.63;;;37.55;;
53833;SDS011;39735;51.432;5.482;2023-02-07T04:03:17;84.45;;;36.30;;
53833;SDS011;39735;51.432;5.482;2023-02-07T04:05:43;75.82;;;37.30;;
53833;SDS011;39735;51.432;5.482;2023-02-07T04:08:09;83.30;;;35.78;;
53833;SDS011;39735;51.432;5.482;2023-02-07T04:10:34;79.97;;;36.00;;
53833;SDS011;39735;51.432;5.482;2023-02-07T04:13:00;86.43;;;37.58;;
53833;SDS011;39735;51.432;5.482;2023-02-07T04:15:25;91.78;;;36.33;;
53833;SDS011;39735;51.432;5.482;2023-02-07T04:17:51;83.30;;;38.03;;
53833;SDS011;39735;51.432;5.482;2023-02-07T04:20:16;77.55;;;34.70;;
53833;SDS011;39735;51.432;5.482;2023-02-07T04:22:42;81.78;;;38.40;;
53833;SDS011;39735;51.432;5.482;2023-02-07T04:25:07;85.18;;;37.17;;
53833;SDS011;39735;51.432;5.482;2023-02-07T04:27:32;84.97;;;35.75;;
53833;SDS011;39735;51.432;5.482;2023-02-07T04:29:58;74.35;;;35.10;;
53833;SDS011;39735;51.432;5.482;2023-02-07T04:32:23;73.82;;;36.20;;
53833;SDS011;39735;51.432;5.482;2023-02-07T04:34:48;87.93;;;38.25;;
53833;SDS011;39735;51.432;5.482;2023-02-07T04:37:14;78.72;;;35.38;;
53833;SDS011;39735;51.432;5.482;2023-02-07T04:39:39;66.63;;;31.50;;
53833;SDS011;39735;51.432;5.482;2023-02-07T04:42:05;74.00;;;33.05;;
53833;SDS011;39735;51.432;5.482;2023-02-07T04:44:31;67.72;;;36.05;;
53833;SDS011;39735;51.432;5.482;2023-02-07T04:46:57;77.32;;;37.20;;
53833;SDS011;39735;51.432;5.482;2023-02-07T04:49:22;84.45;;;35.53;;
53833;SDS011;39735;51.432;5.482;2023-02-07T04:51:47;75.55;;;34.30;;
53833;SDS011;39735;51.432;5.482;2023-02-07T04:54:13;73.68;;;32.65;;
53833;SDS011;39735;51.432;5.482;2023-02-07T04:56:38;78.40;;;34.15;;
53833;SDS011;39735;51.432;5.482;2023-02-07T04:59:04;72.45;;;36.65;;
53833;SDS011;39735;51.432;5.482;2023-02-07T05:01:29;68.28;;;34.47;;
53833;SDS011;39735;51.432;5.482;2023-02-07T05:03:55;82.18;;;30.38;;
53833;SDS011;39735;51.432;5.482;2023-02-07T05:06:20;72.72;;;36.65;;
53833;SDS011;39735;51.432;5.482;2023-02-07T05:08:45;76.88;;;37.53;;
53833;SDS011;39735;51.432;5.482;2023-02-07T05:11:11;77.40;;;36.97;;
53833;SDS011;39735;51.432;5.482;2023-02-07T05:13:37;79.35;;;36.88;;
53833;SDS011;39735;51.432;5.482;2023-02-07T05:16:03;77.07;;;36.45;;
53833;SDS011;39735;51.432;5.482;2023-02-07T05:18:29;75.13;;;34.78;;
53833;SDS011;39735;51.432;5.482;2023-02-07T05:20:54;75.07;;;37.22;;
53833;SDS011;39735;51.432;5.482;2023-02-07T05:23:19;68.65;;;31.35;;
53833;SDS011;39735;51.432;5.482;2023-02-07T05:25:46;68.07;;;33.80;;
53833;SDS011;39735;51.432;5.482;2023-02-07T05:28:12;65.13;;;32.15;;
53833;SDS011;39735;51.432;5.482;2023-02-07T05:30:38;61.42;;;32.80;;
53833;SDS011;39735;51.432;5.482;2023-02-07T05:33:03;78.38;;;30.70;;
53833;SDS011;39735;51.432;5.482;2023-02-07T05:35:33;58.58;;;29.92;;
53833;SDS011;39735;51.432;5.482;2023-02-07T05:38:03;55.28;;;30.67;;
53833;SDS011;39735;51.432;5.482;2023-02-07T05:40:31;69.20;;;31.80;;
53833;SDS011;39735;51.432;5.482;2023-02-07T05:42:57;58.95;;;30.15;;
53833;SDS011;39735;51.432;5.482;2023-02-07T05:45:23;59.67;;;31.33;;
53833;SDS011;39735;51.432;5.482;2023-02-07T05:47:48;67.03;;;34.67;;
53833;SDS011;39735;51.432;5.482;2023-02-07T05:50:13;76.65;;;32.35;;
53833;SDS011;39735;51.432;5.482;2023-02-07T05:52:39;74.75;;;32.83;;
53833;SDS011;39735;51.432;5.482;2023-02-07T05:55:04;73.78;;;31.05;;
53833;SDS011;39735;51.432;5.482;2023-02-07T05:57:30;66.68;;;32.65;;
53833;SDS011;39735;51.432;5.482;2023-02-07T05:59:56;67.60;;;32.97;;
53833;SDS011;39735;51.432;5.482;2023-02-07T06:02:21;66.10;;;31.85;;
53833;SDS011;39735;51.432;5.482;2023-02-07T06:04:47;69.32;;;31.00;;
53833;SDS011;39735;51.432;5.482;2023-02-07T06:07:12;72.18;;;32.88;;
53833;SDS011;39735;51.432;5.482;2023-02-07T06:09:37;62.95;;;31.20;;
53833;SDS011;39735;51.432;5.482;2023-02-07T06:12:03;59.28;;;30.85;;
53833;SDS011;39735;51.432;5.482;2023-02-07T06:14:28;69.32;;;36.47;;
53833;SDS011;39735;51.432;5.482;2023-02-07T06:16:54;87.15;;;34.75;;
53833;SDS011;39735;51.432;5.482;2023-02-07T06:19:19;64.88;;;29.45;;
53833;SDS011;39735;51.432;5.482;2023-02-07T06:21:44;69.78;;;33.65;;
53833;SDS011;39735;51.432;5.482;2023-02-07T06:24:10;71.40;;;34.03;;
53833;SDS011;39735;51.432;5.482;2023-02-07T06:26:35;65.47;;;31.85;;
53833;SDS011;39735;51.432;5.482;2023-02-07T06:29:01;65.05;;;32.65;;
53833;SDS011;39735;51.432;5.482;2023-02-07T06:31:26;72.60;;;31.40;;
53833;SDS011;39735;51.432;5.482;2023-02-07T06:33:52;69.40;;;31.75;;
53833;SDS011;39735;51.432;5.482;2023-02-07T06:36:17;81.07;;;34.38;;
53833;SDS011;39735;51.432;5.482;2023-02-07T06:38:42;63.83;;;30.42;;
53833;SDS011;39735;51.432;5.482;2023-02-07T06:41:08;71.85;;;33.53;;
53833;SDS011;39735;51.432;5.482;2023-02-07T06:43:35;63.50;;;33.63;;
53833;SDS011;39735;51.432;5.482;2023-02-07T06:46:01;75.28;;;34.65;;
53833;SDS011;39735;51.432;5.482;2023-02-07T06:48:27;64.63;;;31.50;;
53833;SDS011;39735;51.432;5.482;2023-02-07T06:50:52;81.60;;;35.83;;
53833;SDS011;39735;51.432;5.482;2023-02-07T06:53:18;71.55;;;35.80;;
53833;SDS011;39735;51.432;5.482;2023-02-07T06:55:43;72.78;;;33.42;;
53833;SDS011;39735;51.432;5.482;2023-02-07T06:58:09;62.15;;;30.50;;
53833;SDS011;39735;51.432;5.482;2023-02-07T07:00:34;56.63;;;29.73;;
53833;SDS011;39735;51.432;5.482;2023-02-07T07:03:00;63.63;;;31.67;;
53833;SDS011;39735;51.432;5.482;2023-02-07T07:05:26;62.38;;;29.20;;
53833;SDS011;39735;51.432;5.482;2023-02-07T07:07:53;73.20;;;30.52;;
53833;SDS011;39735;51.432;5.482;2023-02-07T07:10:18;61.38;;;29.55;;
53833;SDS011;39735;51.432;5.482;2023-02-07T07:12:45;65.63;;;29.27;;
53833;SDS011;39735;51.432;5.482;2023-02-07T07:15:11;60.13;;;29.65;;
53833;SDS011;39735;51.432;5.482;2023-02-07T07:17:36;59.75;;;28.13;;
53833;SDS011;39735;51.432;5.482;2023-02-07T07:20:03;43.45;;;26.00;;
53833;SDS011;39735;51.432;5.482;2023-02-07T07:22:30;46.30;;;25.25;;
53833;SDS011;39735;51.432;5.482;2023-02-07T07:24:55;43.08;;;24.80;;
53833;SDS011;39735;51.432;5.482;2023-02-07T07:27:20;50.47;;;26.90;;
53833;SDS011;39735;51.432;5.482;2023-02-07T07:29:46;49.25;;;26.77;;
53833;SDS011;39735;51.432;5.482;2023-02-07T07:32:11;47.13;;;26.67;;
53833;SDS011;39735;51.432;5.482;2023-02-07T07:34:37;42.85;;;24.83;;
53833;SDS011;39735;51.432;5.482;2023-02-07T07:37:03;50.38;;;26.60;;
53833;SDS011;39735;51.432;5.482;2023-02-07T07:39:28;51.60;;;26.23;;
53833;SDS011;39735;51.432;5.482;2023-02-07T07:41:54;44.97;;;23.70;;
53833;SDS011;39735;51.432;5.482;2023-02-07T07:44:19;39.70;;;23.67;;
53833;SDS011;39735;51.432;5.482;2023-02-07T07:46:45;49.08;;;24.88;;
53833;SDS011;39735;51.432;5.482;2023-02-07T07:49:10;42.92;;;24.92;;
53833;SDS011;39735;51.432;5.482;2023-02-07T07:51:36;55.13;;;24.73;;
53833;SDS011;39735;51.432;5.482;2023-02-07T07:54:01;50.45;;;25.33;;
53833;SDS011;39735;51.432;5.482;2023-02-07T07:56:26;44.53;;;25.60;;
53833;SDS011;39735;51.432;5.482;2023-02-07T07:58:55;45.67;;;26.42;;
53833;SDS011;39735;51.432;5.482;2023-02-07T08:01:21;37.92;;;24.50;;
53833;SDS011;39735;51.432;5.482;2023-02-07T08:03:46;46.17;;;26.85;;
53833;SDS011;39735;51.432;5.482;2023-02-07T08:06:12;49.80;;;26.88;;
53833;SDS011;39735;51.432;5.482;2023-02-07T08:08:38;50.60;;;26.92;;
53833;SDS011;39735;51.432;5.482;2023-02-07T08:11:04;51.08;;;26.45;;
53833;SDS011;39735;51.432;5.482;2023-02-07T08:13:32;46.83;;;27.75;;
53833;SDS011;39735;51.432;5.482;2023-02-07T08:15:57;56.20;;;27.73;;
53833;SDS011;39735;51.432;5.482;2023-02-07T08:18:23;51.50;;;28.27;;
53833;SDS011;39735;51.432;5.482;2023-02-07T08:20:48;65.47;;;30.00;;
53833;SDS011;39735;51.432;5.482;2023-02-07T08:23:14;50.53;;;30.13;;
53833;SDS011;39735;51.432;5.482;2023-02-07T08:25:40;62.00;;;28.88;;
53833;SDS011;39735;51.432;5.482;2023-02-07T08:28:06;53.95;;;26.42;;
53833;SDS011;39735;51.432;5.482;2023-02-07T08:30:31;63.72;;;27.10;;
53833;SDS011;39735;51.432;5.482;2023-02-07T08:32:57;56.47;;;28.15;;
53833;SDS011;39735;51.432;5.482;2023-02-07T08:35:22;61.00;;;32.83;;
53833;SDS011;39735;51.432;5.482;2023-02-07T08:37:47;56.05;;;29.75;;
53833;SDS011;39735;51.432;5.482;2023-02-07T08:40:14;45.53;;;28.08;;
53833;SDS011;39735;51.432;5.482;2023-02-07T08:42:39;56.50;;;28.40;;
53833;SDS011;39735;51.432;5.482;2023-02-07T08:45:05;60.53;;;28.42;;
53833;SDS011;39735;51.432;5.482;2023-02-07T08:47:31;48.35;;;30.70;;
53833;SDS011;39735;51.432;5.482;2023-02-07T08:49:56;63.33;;;29.15;;
53833;SDS011;39735;51.432;5.482;2023-02-07T08:52:22;62.67;;;29.92;;
53833;SDS011;39735;51.432;5.482;2023-02-07T08:54:47;59.28;;;33.30;;
53833;SDS011;39735;51.432;5.482;2023-02-07T08:57:13;61.70;;;31.10;;
53833;SDS011;39735;51.432;5.482;2023-02-07T08:59:39;61.53;;;33.28;;
53833;SDS011;39735;51.432;5.482;2023-02-07T09:02:05;65.57;;;31.80;;
53833;SDS011;39735;51.432;5.482;2023-02-07T09:04:30;64.47;;;31.60;;
53833;SDS011;39735;51.432;5.482;2023-02-07T09:06:56;65.78;;;32.05;;
53833;SDS011;39735;51.432;5.482;2023-02-07T09:09:21;63.28;;;30.67;;
53833;SDS011;39735;51.432;5.482;2023-02-07T09:11:46;66.68;;;33.08;;
53833;SDS011;39735;51.432;5.482;2023-02-07T09:14:12;81.18;;;33.22;;
53833;SDS011;39735;51.432;5.482;2023-02-07T09:16:37;66.32;;;31.20;;
53833;SDS011;39735;51.432;5.482;2023-02-07T09:19:03;64.70;;;31.67;;
53833;SDS011;39735;51.432;5.482;2023-02-07T09:21:28;59.33;;;31.73;;
53833;SDS011;39735;51.432;5.482;2023-02-07T09:23:55;77.28;;;33.13;;
53833;SDS011;39735;51.432;5.482;2023-02-07T09:26:21;60.83;;;29.80;;
53833;SDS011;39735;51.432;5.482;2023-02-07T09:28:47;59.92;;;29.30;;
53833;SDS011;39735;51.432;5.482;2023-02-07T09:31:13;61.15;;;26.75;;
53833;SDS011;39735;51.432;5.482;2023-02-07T09:33:40;53.80;;;27.88;;
53833;SDS011;39735;51.432;5.482;2023-02-07T09:36:14;57.70;;;26.50;;
53833;SDS011;39735;51.432;5.482;2023-02-07T09:38:41;42.38;;;23.65;;
53833;SDS011;39735;51.432;5.482;2023-02-07T09:41:33;73.15;;;25.90;;
53833;SDS011;39735;51.432;5.482;2023-02-07T09:47:10;47.35;;;21.45;;
53833;SDS011;39735;51.432;5.482;2023-02-07T09:49:44;43.72;;;22.85;;
53833;SDS011;39735;51.432;5.482;2023-02-07T09:52:17;54.47;;;25.00;;
53833;SDS011;39735;51.432;5.482;2023-02-07T09:54:48;33.08;;;19.30;;
53833;SDS011;39735;51.432;5.482;2023-02-07T09:57:17;43.20;;;20.98;;
53833;SDS011;39735;51.432;5.482;2023-02-07T09:59:49;33.38;;;18.92;;
53833;SDS011;39735;51.432;5.482;2023-02-07T10:02:30;52.80;;;20.38;;
53833;SDS011;39735;51.432;5.482;2023-02-07T10:05:05;50.65;;;20.55;;
53833;SDS011;39735;51.432;5.482;2023-02-07T10:07:40;45.67;;;18.65;;
53833;SDS011;39735;51.432;5.482;2023-02-07T10:10:30;33.80;;;16.65;;
53833;SDS011;39735;51.432;5.482;2023-02-07T10:13:12;40.85;;;18.98;;
53833;SDS011;39735;51.432;5.482;2023-02-07T10:27:08;29.98;;;16.17;;
53833;SDS011;39735;51.432;5.482;2023-02-07T10:29:47;27.20;;;15.57;;
53833;SDS011;39735;51.432;5.482;2023-02-07T10:32:18;42.38;;;15.75;;
53833;SDS011;39735;51.432;5.482;2023-02-07T10:34:45;23.55;;;15.38;;
53833;SDS011;39735;51.432;5.482;2023-02-07T10:37:30;27.25;;;15.32;;
53833;SDS011;39735;51.432;5.482;2023-02-07T10:40:07;17.90;;;13.52;;
53833;SDS011;39735;51.432;5.482;2023-02-07T10:42:38;25.17;;;12.35;;
53833;SDS011;39735;51.432;5.482;2023-02-07T10:45:04;18.92;;;11.55;;
53833;SDS011;39735;51.432;5.482;2023-02-07T10:47:30;19.63;;;10.95;;
53833;SDS011;39735;51.432;5.482;2023-02-07T10:49:59;20.13;;;11.27;;
53833;SDS011;39735;51.432;5.482;2023-02-07T10:52:41;14.30;;;9.85;;
53833;SDS011;39735;51.432;5.482;2023-02-07T10:55:09;20.38;;;8.65;;
53833;SDS011;39735;51.432;5.482;2023-02-07T10:57:36;20.40;;;10.88;;
53833;SDS011;39735;51.432;5.482;2023-02-07T11:00:10;12.48;;;8.55;;
53833;SDS011;39735;51.432;5.482;2023-02-07T11:02:48;29.58;;;9.52;;
53833;SDS011;39735;51.432;5.482;2023-02-07T11:07:42;20.02;;;9.48;;
53833;SDS011;39735;51.432;5.482;2023-02-07T11:10:28;30.52;;;12.48;;
53833;SDS011;39735;51.432;5.482;2023-02-07T11:12:58;11.50;;;8.80;;
53833;SDS011;39735;51.432;5.482;2023-02-07T11:15:30;15.32;;;10.10;;
53833;SDS011;39735;51.432;5.482;2023-02-07T11:18:00;16.40;;;10.93;;
53833;SDS011;39735;51.432;5.482;2023-02-07T11:22:51;20.98;;;12.20;;
53833;SDS011;39735;51.432;5.482;2023-02-07T11:25:17;21.13;;;10.07;;
53833;SDS011;39735;51.432;5.482;2023-02-07T11:27:43;23.73;;;10.30;;
53833;SDS011;39735;51.432;5.482;2023-02-07T11:30:14;11.98;;;8.43;;
53833;SDS011;39735;51.432;5.482;2023-02-07T11:32:41;17.60;;;9.30;;
53833;SDS011;39735;51.432;5.482;2023-02-07T11:35:08;17.00;;;8.52;;
53833;SDS011;39735;51.432;5.482;2023-02-07T11:37:45;9.82;;;7.68;;
53833;SDS011;39735;51.432;5.482;2023-02-07T11:42:46;12.23;;;8.05;;
53833;SDS011;39735;51.432;5.482;2023-02-07T11:45:14;12.52;;;9.77;;
53833;SDS011;39735;51.432;5.482;2023-02-07T11:47:41;11.93;;;8.38;;
53833;SDS011;39735;51.432;5.482;2023-02-07T11:50:17;13.50;;;7.72;;
53833;SDS011;39735;51.432;5.482;2023-02-07T11:52:52;10.15;;;8.73;;
53833;SDS011;39735;51.432;5.482;2023-02-07T11:55:21;27.25;;;9.00;;
53833;SDS011;39735;51.432;5.482;2023-02-07T11:57:50;14.60;;;8.25;;
53833;SDS011;39735;51.432;5.482;2023-02-07T12:00:22;21.27;;;8.00;;
53833;SDS011;39735;51.432;5.482;2023-02-07T12:02:59;11.50;;;6.50;;
53833;SDS011;39735;51.432;5.482;2023-02-07T12:07:56;13.07;;;7.22;;
53833;SDS011;39735;51.432;5.482;2023-02-07T12:10:33;18.08;;;7.35;;
53833;SDS011;39735;51.432;5.482;2023-02-07T12:13:14;34.50;;;11.45;;
53833;SDS011;39735;51.432;5.482;2023-02-07T12:15:53;16.10;;;7.75;;
53833;SDS011;39735;51.432;5.482;2023-02-07T12:18:27;10.73;;;7.63;;
53833;SDS011;39735;51.432;5.482;2023-02-07T12:20:57;20.30;;;6.85;;
53833;SDS011;39735;51.432;5.482;2023-02-07T12:23:51;22.52;;;7.93;;
53833;SDS011;39735;51.432;5.482;2023-02-07T12:26:25;10.02;;;8.27;;
53833;SDS011;39735;51.432;5.482;2023-02-07T12:31:34;11.55;;;8.50;;
53833;SDS011;39735;51.432;5.482;2023-02-07T12:34:08;10.43;;;9.18;;
53833;SDS011;39735;51.432;5.482;2023-02-07T12:36:39;9.60;;;7.57;;
53833;SDS011;39735;51.432;5.482;2023-02-07T12:42:06;11.35;;;7.60;;
53833;SDS011;39735;51.432;5.482;2023-02-07T12:44:41;21.58;;;7.93;;
53833;SDS011;39735;51.432;5.482;2023-02-07T13:01:23;50.55;;;12.95;;
53833;SDS011;39735;51.432;5.482;2023-02-07T13:07:07;22.00;;;7.75;;
53833;SDS011;39735;51.432;5.482;2023-02-07T13:12:29;10.90;;;7.07;;
53833;SDS011;39735;51.432;5.482;2023-02-07T13:20:56;11.57;;;7.18;;
53833;SDS011;39735;51.432;5.482;2023-02-07T13:23:27;12.70;;;7.88;;
53833;SDS011;39735;51.432;5.482;2023-02-07T13:25:59;17.67;;;8.32;;
53833;SDS011;39735;51.432;5.482;2023-02-07T13:28:32;9.30;;;7.13;;
53833;SDS011;39735;51.432;5.482;2023-02-07T13:31:03;34.30;;;7.40;;
53833;SDS011;39735;51.432;5.482;2023-02-07T13:33:31;10.80;;;7.53;;
53833;SDS011;39735;51.432;5.482;2023-02-07T13:36:01;8.10;;;7.15;;
53833;SDS011;39735;51.432;5.482;2023-02-07T13:44:03;14.38;;;7.85;;
53833;SDS011;39735;51.432;5.482;2023-02-07T13:49:22;13.93;;;7.43;;
53833;SDS011;39735;51.432;5.482;2023-02-07T13:52:01;9.77;;;7.43;;
53833;SDS011;39735;51.432;5.482;2023-02-07T13:54:30;16.05;;;6.57;;
53833;SDS011;39735;51.432;5.482;2023-02-07T14:02:38;11.55;;;7.47;;
53833;SDS011;39735;51.432;5.482;2023-02-07T14:05:09;11.05;;;8.43;;
53833;SDS011;39735;51.432;5.482;2023-02-07T14:07:40;26.95;;;9.50;;
53833;SDS011;39735;51.432;5.482;2023-02-07T14:10:05;12.27;;;7.13;;
53833;SDS011;39735;51.432;5.482;2023-02-07T14:12:37;19.45;;;7.10;;
53833;SDS011;39735;51.432;5.482;2023-02-07T14:18:04;30.58;;;7.57;;
53833;SDS011;39735;51.432;5.482;2023-02-07T14:20:46;14.73;;;7.55;;
53833;SDS011;39735;51.432;5.482;2023-02-07T14:23:13;11.90;;;9.40;;
53833;SDS011;39735;51.432;5.482;2023-02-07T14:25:42;14.02;;;7.70;;
53833;SDS011;39735;51.432;5.482;2023-02-07T14:28:28;10.82;;;9.10;;
53833;SDS011;39735;51.432;5.482;2023-02-07T14:30:57;10.48;;;9.38;;
53833;SDS011;39735;51.432;5.482;2023-02-07T14:33:34;28.65;;;10.60;;
53833;SDS011;39735;51.432;5.482;2023-02-07T14:36:04;16.88;;;9.77;;
53833;SDS011;39735;51.432;5.482;2023-02-07T14:41:32;12.25;;;9.02;;
53833;SDS011;39735;51.432;5.482;2023-02-07T14:44:01;15.38;;;9.27;;
53833;SDS011;39735;51.432;5.482;2023-02-07T14:48:57;16.25;;;9.32;;
53833;SDS011;39735;51.432;5.482;2023-02-07T14:51:31;17.85;;;9.35;;
53833;SDS011;39735;51.432;5.482;2023-02-07T14:56:42;16.67;;;9.63;;
53833;SDS011;39735;51.432;5.482;2023-02-07T14:59:12;15.90;;;10.20;;
53833;SDS011;39735;51.432;5.482;2023-02-07T15:01:40;14.35;;;9.27;;
53833;SDS011;39735;51.432;5.482;2023-02-07T15:04:06;16.60;;;9.80;;
53833;SDS011;39735;51.432;5.482;2023-02-07T15:06:38;14.95;;;9.50;;
53833;SDS011;39735;51.432;5.482;2023-02-07T15:09:05;19.42;;;10.10;;
53833;SDS011;39735;51.432;5.482;2023-02-07T15:11:31;10.70;;;9.05;;
53833;SDS011;39735;51.432;5.482;2023-02-07T15:14:00;20.77;;;9.45;;
53833;SDS011;39735;51.432;5.482;2023-02-07T15:16:33;11.65;;;8.55;;
53833;SDS011;39735;51.432;5.482;2023-02-07T15:22:00;19.92;;;11.70;;
53833;SDS011;39735;51.432;5.482;2023-02-07T15:24:30;17.95;;;10.10;;
53833;SDS011;39735;51.432;5.482;2023-02-07T15:26:59;17.17;;;8.50;;
53833;SDS011;39735;51.432;5.482;2023-02-07T15:29:30;16.92;;;9.52;;
53833;SDS011;39735;51.432;5.482;2023-02-07T15:32:19;17.33;;;10.40;;
53833;SDS011;39735;51.432;5.482;2023-02-07T15:34:46;12.23;;;9.55;;
53833;SDS011;39735;51.432;5.482;2023-02-07T15:37:13;16.35;;;9.68;;
53833;SDS011;39735;51.432;5.482;2023-02-07T15:39:40;15.50;;;8.98;;
53833;SDS011;39735;51.432;5.482;2023-02-07T15:42:05;11.75;;;9.38;;
53833;SDS011;39735;51.432;5.482;2023-02-07T15:44:44;13.20;;;9.02;;
53833;SDS011;39735;51.432;5.482;2023-02-07T15:47:28;10.98;;;9.52;;
53833;SDS011;39735;51.432;5.482;2023-02-07T15:50:06;17.05;;;10.50;;
53833;SDS011;39735;51.432;5.482;2023-02-07T15:52:47;23.42;;;9.63;;
53833;SDS011;39735;51.432;5.482;2023-02-07T15:55:15;15.75;;;9.35;;
53833;SDS011;39735;51.432;5.482;2023-02-07T15:57:44;14.75;;;10.13;;
53833;SDS011;39735;51.432;5.482;2023-02-07T16:02:59;11.07;;;8.40;;
53833;SDS011;39735;51.432;5.482;2023-02-07T16:05:29;10.10;;;7.55;;
53833;SDS011;39735;51.432;5.482;2023-02-07T16:07:56;12.70;;;9.50;;
53833;SDS011;39735;51.432;5.482;2023-02-07T16:13:01;11.43;;;8.98;;
53833;SDS011;39735;51.432;5.482;2023-02-07T16:17:59;14.13;;;9.07;;
53833;SDS011;39735;51.432;5.482;2023-02-07T16:20:26;26.95;;;10.48;;
53833;SDS011;39735;51.432;5.482;2023-02-07T16:22:53;13.43;;;9.23;;
53833;SDS011;39735;51.432;5.482;2023-02-07T16:25:21;16.15;;;11.68;;
53833;SDS011;39735;51.432;5.482;2023-02-07T16:27:48;13.90;;;10.60;;
53833;SDS011;39735;51.432;5.482;2023-02-07T16:30:16;11.80;;;9.65;;
53833;SDS011;39735;51.432;5.482;2023-02-07T16:32:43;14.68;;;10.60;;
53833;SDS011;39735;51.432;5.482;2023-02-07T16:35:31;14.32;;;10.95;;
53833;SDS011;39735;51.432;5.482;2023-02-07T16:37:55;12.02;;;10.55;;
53833;SDS011;39735;51.432;5.482;2023-02-07T16:40:21;17.17;;;10.80;;
53833;SDS011;39735;51.432;5.482;2023-02-07T16:42:47;17.92;;;10.10;;